createdAt,value
2019-05-10T00:00:34.465Z,4.27
2019-05-10T00:03:20.727Z,3.03
2019-05-10T00:06:07.848Z,2.33
2019-05-10T00:08:44.637Z,4.00
2019-05-10T00:11:33.273Z,3.00
2019-05-10T00:14:33.378Z,4.53
2019-05-10T00:17:08.466Z,2.73
2019-05-10T00:19:37.306Z,3.53
2019-05-10T00:22:05.030Z,4.37
2019-05-10T00:24:33.319Z,2.43
2019-05-10T00:27:01.811Z,4.27
2019-05-10T00:29:30.047Z,2.43
2019-05-10T00:31:58.622Z,2.57
2019-05-10T00:34:27.353Z,2.40
2019-05-10T00:36:56.065Z,4.57
2019-05-10T00:39:24.737Z,3.23
2019-05-10T00:41:53.551Z,4.80
2019-05-10T00:44:22.313Z,3.13
2019-05-10T00:46:50.762Z,2.60
2019-05-10T00:49:18.939Z,3.10
2019-05-10T00:51:47.736Z,3.10
2019-05-10T00:54:15.713Z,5.73
2019-05-10T00:56:43.275Z,5.27
2019-05-10T00:59:11.148Z,2.73
2019-05-10T01:01:39.623Z,4.43
2019-05-10T01:04:08.417Z,2.73
2019-05-10T01:06:36.966Z,3.97
2019-05-10T01:09:06.463Z,4.07
2019-05-10T01:11:35.023Z,4.07
2019-05-10T01:14:03.798Z,3.63
2019-05-10T01:16:32.488Z,4.07
2019-05-10T01:19:00.881Z,4.90
2019-05-10T01:21:28.638Z,4.23
2019-05-10T01:23:56.863Z,3.40
2019-05-10T01:26:25.002Z,4.50
2019-05-10T01:28:52.574Z,2.83
2019-05-10T01:31:21.152Z,4.73
2019-05-10T01:33:49.032Z,3.37
2019-05-10T01:36:17.310Z,5.00
2019-05-10T01:38:45.188Z,4.00
2019-05-10T01:41:13.053Z,4.37
2019-05-10T01:43:41.702Z,3.70
2019-05-10T01:46:10.158Z,5.17
2019-05-10T01:48:38.390Z,6.80
2019-05-10T01:51:06.709Z,3.40
2019-05-10T01:53:35.262Z,5.30
2019-05-10T01:56:03.482Z,4.70
2019-05-10T01:58:31.828Z,6.20
2019-05-10T02:01:00.660Z,6.63
2019-05-10T02:03:29.396Z,4.60
2019-05-10T02:05:57.727Z,4.63
2019-05-10T02:08:25.583Z,5.53
2019-05-10T02:10:53.870Z,5.23
2019-05-10T02:13:22.096Z,5.07
2019-05-10T02:15:50.392Z,7.20
2019-05-10T02:18:18.842Z,5.87
2019-05-10T02:20:47.263Z,7.90
2019-05-10T02:23:15.986Z,14.10
2019-05-10T02:25:45.178Z,4.67
2019-05-10T02:28:13.866Z,3.33
2019-05-10T02:30:41.897Z,5.27
2019-05-10T02:33:10.071Z,4.03
2019-05-10T02:35:38.354Z,4.73
2019-05-10T02:38:05.920Z,4.03
2019-05-10T02:40:34.699Z,2.80
2019-05-10T02:43:02.983Z,5.63
2019-05-10T02:45:30.952Z,3.50
2019-05-10T02:47:59.527Z,4.67
2019-05-10T02:50:27.826Z,6.80
2019-05-10T02:52:56.205Z,4.43
2019-05-10T02:55:25.002Z,4.40
2019-05-10T02:57:54.988Z,3.70
2019-05-10T03:00:23.868Z,3.23
2019-05-10T03:02:52.755Z,3.13
2019-05-10T03:05:21.157Z,2.90
2019-05-10T03:07:52.250Z,3.13
2019-05-10T03:10:20.309Z,4.30
2019-05-10T03:12:49.938Z,3.73
2019-05-10T03:15:18.026Z,5.73
2019-05-10T03:17:47.051Z,3.33
2019-05-10T03:20:16.107Z,5.83
2019-05-10T03:22:44.810Z,2.87
2019-05-10T03:25:13.468Z,4.43
2019-05-10T03:27:41.816Z,3.27
2019-05-10T03:30:10.096Z,3.80
2019-05-10T03:32:38.108Z,3.20
2019-05-10T03:35:07.219Z,4.40
2019-05-10T03:37:35.732Z,11.67
2019-05-10T03:40:05.209Z,5.97
2019-05-10T03:42:33.278Z,3.10
2019-05-10T03:45:01.605Z,5.93
2019-05-10T03:47:29.955Z,5.10
2019-05-10T03:49:58.681Z,6.47
2019-05-10T03:52:27.155Z,4.37
2019-05-10T03:54:55.455Z,4.40
2019-05-10T03:57:23.753Z,6.17
2019-05-10T03:59:52.328Z,5.13
2019-05-10T04:02:20.704Z,3.27
2019-05-10T04:04:48.994Z,6.70
2019-05-10T04:07:17.386Z,3.97
2019-05-10T04:09:45.634Z,4.90
2019-05-10T04:12:14.239Z,4.37
2019-05-10T04:14:42.873Z,6.50
2019-05-10T04:17:11.217Z,5.30
2019-05-10T04:19:39.562Z,8.70
2019-05-10T04:22:08.177Z,8.07
2019-05-10T04:24:36.855Z,16.77
2019-05-10T04:27:05.270Z,7.23
2019-05-10T04:29:33.545Z,5.97
2019-05-10T04:32:01.709Z,3.67
2019-05-10T04:34:29.579Z,2.90
2019-05-10T04:36:57.816Z,2.60
2019-05-10T04:39:25.370Z,3.80
2019-05-10T04:41:53.942Z,8.10
2019-05-10T04:44:22.166Z,2.57
2019-05-10T04:46:50.754Z,3.77
2019-05-10T04:49:19.629Z,3.43
2019-05-10T04:51:47.875Z,3.73
2019-05-10T04:54:15.835Z,3.00
2019-05-10T04:56:44.201Z,4.33
2019-05-10T04:59:11.699Z,6.13
2019-05-10T05:01:40.273Z,6.63
2019-05-10T05:04:08.608Z,8.23
2019-05-10T05:06:37.109Z,5.07
2019-05-10T05:09:06.831Z,5.03
2019-05-10T05:11:34.388Z,10.67
2019-05-10T05:14:02.637Z,6.60
2019-05-10T05:16:31.209Z,8.07
2019-05-10T05:18:59.481Z,6.20
2019-05-10T05:21:28.046Z,8.97
2019-05-10T05:23:56.255Z,5.87
2019-05-10T05:26:24.852Z,6.60
2019-05-10T05:28:53.235Z,4.00
2019-05-10T05:31:21.206Z,3.53
2019-05-10T05:33:49.477Z,5.80
2019-05-10T05:36:17.792Z,5.10
2019-05-10T05:38:47.344Z,5.40
2019-05-10T05:41:15.869Z,6.87
2019-05-10T05:43:46.341Z,5.60
2019-05-10T05:46:14.771Z,5.90
2019-05-10T05:48:43.371Z,4.87
2019-05-10T05:51:12.079Z,12.90
2019-05-10T05:53:42.370Z,5.77
2019-05-10T05:56:14.222Z,6.63
2019-05-10T05:58:44.455Z,6.20
2019-05-10T06:01:10.888Z,5.43
2019-05-10T06:03:39.543Z,8.80
2019-05-10T06:06:15.481Z,11.13
2019-05-10T06:08:38.517Z,9.10
2019-05-10T06:11:09.163Z,6.70
2019-05-10T06:13:36.977Z,7.83
2019-05-10T06:16:06.719Z,6.17
2019-05-10T06:18:36.126Z,7.90
2019-05-10T06:21:04.553Z,11.83
2019-05-10T06:23:35.104Z,7.47
2019-05-10T06:26:03.284Z,6.93
2019-05-10T06:28:56.886Z,5.87
2019-05-10T06:31:01.567Z,8.07
2019-05-10T06:33:29.895Z,6.47
2019-05-10T06:35:58.186Z,6.93
2019-05-10T06:38:26.109Z,6.13
2019-05-10T06:40:54.567Z,5.93
2019-05-10T06:43:22.829Z,7.07
2019-05-10T06:45:52.296Z,10.20
2019-05-10T06:48:27.386Z,9.30
2019-05-10T06:50:51.923Z,10.97
2019-05-10T06:53:23.170Z,25.40
2019-05-10T06:55:51.067Z,16.43
2019-05-10T06:58:20.342Z,7.93
2019-05-10T07:00:48.939Z,7.63
2019-05-10T07:03:17.849Z,6.60
2019-05-10T07:05:45.711Z,9.37
2019-05-10T07:08:20.149Z,6.80
2019-05-10T07:10:44.769Z,6.03
2019-05-10T07:13:13.154Z,6.33
2019-05-10T07:15:42.639Z,11.10
2019-05-10T07:18:16.931Z,7.77
2019-05-10T07:20:43.271Z,6.60
2019-05-10T07:23:11.934Z,7.60
2019-05-10T07:25:43.731Z,4.83
2019-05-10T07:28:15.902Z,7.03
2019-05-10T07:30:41.783Z,4.07
2019-05-10T07:33:09.898Z,4.63
2019-05-10T07:35:38.801Z,4.17
2019-05-10T07:38:06.868Z,3.00
2019-05-10T07:40:34.838Z,4.43
2019-05-10T07:43:03.002Z,4.17
2019-05-10T07:45:31.352Z,2.27
2019-05-10T07:48:02.424Z,3.07
2019-05-10T07:50:30.328Z,4.10
2019-05-10T07:52:59.162Z,3.20
2019-05-10T07:55:29.819Z,3.43
2019-05-10T07:57:59.195Z,3.30
2019-05-10T08:00:27.933Z,2.30
2019-05-10T08:03:07.501Z,4.20
2019-05-10T08:05:29.201Z,2.40
2019-05-10T08:07:58.816Z,2.90
2019-05-10T08:10:28.972Z,3.67
2019-05-10T08:12:59.515Z,2.80
2019-05-10T08:15:30.513Z,2.57
2019-05-10T08:17:58.749Z,2.50
2019-05-10T08:20:41.414Z,4.37
2019-05-10T08:22:57.168Z,4.13
2019-05-10T08:25:29.094Z,3.37
2019-05-10T08:27:55.638Z,5.07
2019-05-10T08:30:42.701Z,2.63
2019-05-10T08:33:10.947Z,4.17
2019-05-10T08:35:39.240Z,3.13
2019-05-10T08:38:08.103Z,4.10
2019-05-10T08:40:37.972Z,2.80
2019-05-10T08:43:08.905Z,3.30
2019-05-10T08:45:38.915Z,5.10
2019-05-10T08:48:07.320Z,3.03
2019-05-10T08:50:49.737Z,4.77
2019-05-10T08:53:10.717Z,5.80
2019-05-10T08:55:35.873Z,4.40
2019-05-10T08:58:04.500Z,8.13
2019-05-10T09:00:45.643Z,8.60
2019-05-10T09:03:09.275Z,13.80
2019-05-10T09:05:34.091Z,5.27
2019-05-10T09:08:05.497Z,5.37
2019-05-10T09:10:32.569Z,9.30
2019-05-10T09:13:03.248Z,4.83
2019-05-10T09:15:33.040Z,4.63
2019-05-10T09:18:04.144Z,4.73
2019-05-10T09:20:32.020Z,9.77
2019-05-10T09:23:02.391Z,3.30
2019-05-10T09:25:31.572Z,4.57
2019-05-10T09:28:02.480Z,5.80
2019-05-10T09:30:35.360Z,6.30
2019-05-10T09:33:08.515Z,3.40
2019-05-10T09:35:32.981Z,4.20
2019-05-10T09:38:02.102Z,5.93
2019-05-10T09:40:32.651Z,4.27
2019-05-10T09:43:14.868Z,5.73
2019-05-10T09:45:43.309Z,4.00
2019-05-10T09:48:12.283Z,3.97
2019-05-10T09:50:46.301Z,4.97
2019-05-10T09:53:15.141Z,5.50
2019-05-10T09:55:45.434Z,3.87
2019-05-10T09:58:11.169Z,5.50
2019-05-10T10:00:39.140Z,4.57
2019-05-10T10:03:08.190Z,6.03
2019-05-10T10:05:39.814Z,4.93
2019-05-10T10:08:09.244Z,6.07
2019-05-10T10:10:37.301Z,5.33
2019-05-10T10:13:13.528Z,3.10
2019-05-10T10:15:37.286Z,7.50
2019-05-10T10:18:05.828Z,6.33
2019-05-10T10:20:36.042Z,6.03
2019-05-10T10:23:07.017Z,5.67
2019-05-10T10:25:40.390Z,8.30
2019-05-10T10:28:10.370Z,4.43
2019-05-10T10:30:37.375Z,4.93
2019-05-10T10:33:10.499Z,2.90
2019-05-10T10:35:37.829Z,5.23
2019-05-10T10:38:07.762Z,7.73
2019-05-10T10:40:44.201Z,6.37
2019-05-10T10:43:07.457Z,9.43
2019-05-10T10:45:37.678Z,6.10
2019-05-10T10:48:08.440Z,3.80
2019-05-10T10:50:36.526Z,5.93
2019-05-10T10:53:07.807Z,5.87
2019-05-10T10:55:37.790Z,3.87
2019-05-10T10:58:07.369Z,5.37
2019-05-10T11:00:38.995Z,8.40
2019-05-10T11:03:05.899Z,5.10
2019-05-10T11:05:34.302Z,8.07
2019-05-10T11:08:02.682Z,3.47
2019-05-10T11:10:31.452Z,6.13
2019-05-10T11:13:02.951Z,7.63
2019-05-10T11:15:35.989Z,5.97
2019-05-10T11:18:00.656Z,5.67
2019-05-10T11:20:31.510Z,5.60
2019-05-10T11:22:59.440Z,10.43
2019-05-10T11:25:27.302Z,8.20
2019-05-10T11:27:58.596Z,8.57
2019-05-10T11:30:25.688Z,7.10
2019-05-10T11:32:53.987Z,8.67
2019-05-10T11:35:30.228Z,8.43
2019-05-10T11:37:53.206Z,5.27
2019-05-10T11:40:30.560Z,8.57
2019-05-10T11:42:51.251Z,8.40
2019-05-10T11:45:20.902Z,7.00
2019-05-10T11:47:54.476Z,5.50
2019-05-10T11:50:28.881Z,5.57
2019-05-10T11:52:51.329Z,9.10
2019-05-10T11:58:01.536Z,7.97
2019-05-10T11:59:03.906Z,8.20
2019-05-10T12:00:28.534Z,5.10
2019-05-10T12:03:12.628Z,6.27
2019-05-10T12:05:26.310Z,6.73
2019-05-10T12:07:54.699Z,5.33
2019-05-10T12:10:25.682Z,6.40
2019-05-10T12:13:06.145Z,3.20
2019-05-10T12:17:58.862Z,5.70
2019-05-10T12:20:39.546Z,3.43
2019-05-10T12:22:54.181Z,5.60
2019-05-10T12:25:42.520Z,6.17
2019-05-10T12:26:06.530Z,3.73
2019-05-10T12:27:52.758Z,4.87
2019-05-10T12:30:21.656Z,4.53
2019-05-10T12:33:05.830Z,4.47
2019-05-10T12:35:21.399Z,9.73
2019-05-10T12:37:54.269Z,4.70
2019-05-10T12:40:23.831Z,7.13
2019-05-10T12:42:51.192Z,3.93
2019-05-10T12:45:22.897Z,4.47
2019-05-10T12:47:51.852Z,3.73
2019-05-10T12:50:21.367Z,5.83
2019-05-10T12:53:01.956Z,3.90
2019-05-10T12:55:19.500Z,2.97
2019-05-10T12:57:47.492Z,3.17
2019-05-10T13:00:16.320Z,3.90
2019-05-10T13:02:51.433Z,4.27
2019-05-10T13:05:16.058Z,2.77
2019-05-10T13:07:44.792Z,5.03
2019-05-10T13:10:13.286Z,3.03
2019-05-10T13:12:44.367Z,4.83
2019-05-10T13:15:11.843Z,2.67
2019-05-10T13:17:44.127Z,2.10
2019-05-10T13:20:10.943Z,2.43
2019-05-10T13:22:39.676Z,2.97
2019-05-10T13:25:08.410Z,2.90
2019-05-10T13:27:36.604Z,1.40
2019-05-10T13:30:05.142Z,2.90
2019-05-10T13:32:33.419Z,1.67
2019-05-10T13:35:01.784Z,2.80
2019-05-10T13:37:30.103Z,2.03
2019-05-10T13:40:05.051Z,3.23
2019-05-10T13:42:28.614Z,1.40
2019-05-10T13:44:57.418Z,4.47
2019-05-10T13:47:25.680Z,1.27
2019-05-10T13:49:53.868Z,2.67
2019-05-10T13:52:22.645Z,1.27
2019-05-10T13:54:50.220Z,2.63
2019-05-10T13:57:18.499Z,3.17
2019-05-10T13:59:48.807Z,5.30
2019-05-10T14:02:22.974Z,1.37
2019-05-10T14:04:47.030Z,1.97
2019-05-10T14:07:15.719Z,1.82
2019-05-10T14:09:44.244Z,2.83
2019-05-10T14:12:16.221Z,3.07
2019-05-10T14:14:42.673Z,1.33
2019-05-10T14:17:10.663Z,3.23
2019-05-10T14:19:39.345Z,4.60
2019-05-10T14:22:07.979Z,3.87
2019-05-10T14:24:36.230Z,2.37
2019-05-10T14:27:04.583Z,2.40
2019-05-10T14:29:36.445Z,4.00
2019-05-10T14:32:02.976Z,4.57
2019-05-10T14:34:31.268Z,2.27
2019-05-10T14:36:59.614Z,4.33
2019-05-10T14:39:27.608Z,4.03
2019-05-10T14:41:56.219Z,6.87
2019-05-10T14:44:25.034Z,7.20
2019-05-10T14:46:53.559Z,4.60
2019-05-10T14:49:21.808Z,3.00
2019-05-10T14:51:59.098Z,2.67
2019-05-10T14:54:22.915Z,5.63
2019-05-10T14:56:53.912Z,2.87
2019-05-10T14:59:21.514Z,4.30
2019-05-10T15:01:50.222Z,10.00
2019-05-10T15:04:43.847Z,4.83
2019-05-10T15:06:49.325Z,3.00
2019-05-10T15:09:21.740Z,5.07
2019-05-10T15:11:48.392Z,3.87
2019-05-10T15:14:16.851Z,2.80
2019-05-10T15:16:45.291Z,2.93
2019-05-10T15:19:14.235Z,5.50
2019-05-10T15:21:42.836Z,2.00
2019-05-10T15:24:10.734Z,3.43
2019-05-10T15:26:43.839Z,5.10
2019-05-10T15:29:15.202Z,3.17
2019-05-10T15:31:40.123Z,3.27
2019-05-10T15:34:08.930Z,4.37
2019-05-10T15:36:36.906Z,6.00
2019-05-10T15:39:06.583Z,4.57
2019-05-10T15:41:34.880Z,5.40
2019-05-10T15:44:03.838Z,6.30
2019-05-10T15:46:39.538Z,6.17
2019-05-10T15:49:01.988Z,8.33
2019-05-10T15:51:36.312Z,9.37
2019-05-10T15:54:04.966Z,4.83
2019-05-10T15:56:35.481Z,4.57
2019-05-10T15:59:02.376Z,4.83
2019-05-10T16:01:30.279Z,5.57
2019-05-10T16:03:58.187Z,12.90
2019-05-10T16:06:26.581Z,3.53
2019-05-10T16:08:54.865Z,3.00
2019-05-10T16:11:23.038Z,3.93
2019-05-10T16:13:54.825Z,4.63
2019-05-10T16:16:21.991Z,3.43
2019-05-10T16:18:50.374Z,3.30
2019-05-10T16:21:18.739Z,6.50
2019-05-10T16:23:48.358Z,3.13
2019-05-10T16:26:17.617Z,2.57
2019-05-10T16:28:46.586Z,3.37
2019-05-10T16:31:14.763Z,2.57
2019-05-10T16:33:42.733Z,8.03
2019-05-10T16:36:10.999Z,4.00
2019-05-10T16:38:38.954Z,4.60
2019-05-10T16:41:06.979Z,4.47
2019-05-10T16:43:35.769Z,5.40
2019-05-10T16:46:04.502Z,4.60
2019-05-10T16:48:32.738Z,5.80
2019-05-10T16:51:03.737Z,3.80
2019-05-10T16:53:31.534Z,4.43
2019-05-10T16:56:00.242Z,4.40
2019-05-10T16:58:28.134Z,6.27
2019-05-10T17:00:56.083Z,3.47
2019-05-10T17:03:24.448Z,2.97
2019-05-10T17:05:53.869Z,3.93
2019-05-10T17:08:22.704Z,7.97
2019-05-10T17:10:51.471Z,13.37
2019-05-10T17:13:20.261Z,6.17
2019-05-10T17:15:48.955Z,6.63
2019-05-10T17:18:20.315Z,7.90
2019-05-10T17:20:50.715Z,4.77
2019-05-10T17:23:20.137Z,4.37
2019-05-10T17:25:48.879Z,6.07
2019-05-10T17:28:18.210Z,7.60
2019-05-10T17:30:48.329Z,10.90
2019-05-10T17:33:18.275Z,7.07
2019-05-10T17:35:47.366Z,7.00
2019-05-10T17:38:16.378Z,4.50
2019-05-10T17:40:48.067Z,5.10
2019-05-10T17:43:20.919Z,7.00
2019-05-10T17:45:47.795Z,8.43
2019-05-10T17:48:16.214Z,6.97
2019-05-10T17:50:45.963Z,5.27
2019-05-10T17:53:15.997Z,4.50
2019-05-10T17:55:49.164Z,5.37
2019-05-10T17:58:17.245Z,4.63
2019-05-10T18:00:45.135Z,3.03
2019-05-10T18:03:14.194Z,8.30
2019-05-10T18:05:46.862Z,4.53
2019-05-10T18:08:15.504Z,4.17
2019-05-10T18:10:44.289Z,3.37
2019-05-10T18:13:12.651Z,5.47
2019-05-10T18:15:40.911Z,3.33
2019-05-10T18:18:09.299Z,4.17
2019-05-10T18:20:42.256Z,3.57
2019-05-10T18:23:07.637Z,5.20
2019-05-10T18:25:35.634Z,4.33
2019-05-10T18:28:03.967Z,3.43
2019-05-10T18:30:32.650Z,2.10
2019-05-10T18:33:01.140Z,5.57
2019-05-10T18:35:28.695Z,2.53
2019-05-10T18:37:59.518Z,3.87
2019-05-10T18:40:31.564Z,4.60
2019-05-10T18:43:03.147Z,5.17
2019-05-10T18:45:29.823Z,2.30
2019-05-10T18:47:58.043Z,2.63
2019-05-10T18:50:25.941Z,4.30
2019-05-10T18:52:54.521Z,3.70
2019-05-10T18:55:23.158Z,3.77
2019-05-10T18:57:52.616Z,4.20
2019-05-10T19:00:23.257Z,9.17
2019-05-10T19:02:55.098Z,11.80
2019-05-10T19:05:25.172Z,16.90
2019-05-10T19:08:03.077Z,24.53
2019-05-10T19:10:22.645Z,22.30
2019-05-10T19:12:59.504Z,25.73
2019-05-10T19:15:20.331Z,18.13
2019-05-10T19:17:49.072Z,16.17
2019-05-10T19:20:18.479Z,9.60
2019-05-10T19:22:46.941Z,5.27
2019-05-10T19:25:15.705Z,5.33
2019-05-10T19:27:49.975Z,6.23
2019-05-10T19:30:19.977Z,4.77
2019-05-10T19:32:51.197Z,5.67
2019-05-10T19:35:16.994Z,5.73
2019-05-10T19:37:45.711Z,6.10
2019-05-10T19:40:14.446Z,4.77
2019-05-10T19:42:44.943Z,6.97
2019-05-10T19:45:19.369Z,4.03
2019-05-10T19:47:50.003Z,4.03
2019-05-10T19:50:16.782Z,4.17
2019-05-10T19:52:45.804Z,5.53
2019-05-10T19:55:19.611Z,4.73
2019-05-10T19:57:49.430Z,4.33
2019-05-10T20:00:18.568Z,4.23
2019-05-10T20:02:47.065Z,5.83
2019-05-10T20:05:15.866Z,4.77
2019-05-10T20:07:46.198Z,8.13
2019-05-10T20:10:15.093Z,6.43
2019-05-10T20:12:43.750Z,7.83
2019-05-10T20:15:11.701Z,11.73
2019-05-10T20:17:39.278Z,15.83
2019-05-10T20:20:08.041Z,25.63
2019-05-10T20:22:36.753Z,33.03
2019-05-10T20:25:05.294Z,25.13
2019-05-10T20:27:33.878Z,23.30
2019-05-10T20:30:02.717Z,20.23
2019-05-10T20:32:31.603Z,20.97
2019-05-10T20:35:00.409Z,14.20
2019-05-10T20:37:29.605Z,14.87
2019-05-10T20:39:58.675Z,13.50
2019-05-10T20:42:27.848Z,12.27
2019-05-10T20:45:06.850Z,12.23
2019-05-10T20:47:28.777Z,13.57
2019-05-10T20:49:57.975Z,12.40
2019-05-10T20:52:26.594Z,12.60
2019-05-10T20:54:55.493Z,12.67
2019-05-10T20:57:24.154Z,22.50
2019-05-10T20:59:53.265Z,31.83
2019-05-10T21:02:23.785Z,15.53
2019-05-10T21:04:52.074Z,22.20
2019-05-10T21:07:20.699Z,16.50
2019-05-10T21:09:49.435Z,20.20
2019-05-10T21:12:17.881Z,16.30
2019-05-10T21:14:45.934Z,15.63
2019-05-10T21:17:14.800Z,13.90
2019-05-10T21:19:43.634Z,10.80
2019-05-10T21:22:11.629Z,11.77
2019-05-10T21:24:39.188Z,11.07
2019-05-10T21:27:07.565Z,10.23
2019-05-10T21:29:36.374Z,13.70
2019-05-10T21:32:04.927Z,25.77
2019-05-10T21:34:33.723Z,20.80
2019-05-10T21:37:01.934Z,17.63
2019-05-10T21:39:30.309Z,12.07
2019-05-10T21:41:58.559Z,11.40
2019-05-10T21:44:27.179Z,31.93
2019-05-10T21:46:55.997Z,31.90
2019-05-10T21:49:24.781Z,20.53
2019-05-10T21:51:53.500Z,12.63
2019-05-10T21:54:21.440Z,12.90
2019-05-10T21:56:49.829Z,14.53
2019-05-10T21:59:18.616Z,14.47
2019-05-10T22:01:46.764Z,8.17
2019-05-10T22:04:15.604Z,12.70
2019-05-10T22:06:44.153Z,9.23
2019-05-10T22:09:12.870Z,12.77
2019-05-10T22:11:40.871Z,16.63
2019-05-10T22:14:09.604Z,35.67
2019-05-10T22:16:38.188Z,35.47
2019-05-10T22:19:05.913Z,21.40
2019-05-10T22:21:33.765Z,12.83
2019-05-10T22:24:02.090Z,12.40
2019-05-10T22:26:30.455Z,14.97
2019-05-10T22:28:59.075Z,9.23
2019-05-10T22:31:27.814Z,8.33
2019-05-10T22:33:55.699Z,7.80
2019-05-10T22:36:23.970Z,9.70
2019-05-10T22:39:05.783Z,7.53
2019-05-10T22:41:21.199Z,7.37
2019-05-10T22:43:49.035Z,8.87
2019-05-10T22:46:16.594Z,9.97
2019-05-10T22:48:44.795Z,8.97
2019-05-10T22:51:12.970Z,6.93
2019-05-10T22:53:41.222Z,5.53
2019-05-10T22:56:09.064Z,5.97
2019-05-10T22:58:37.315Z,6.13
2019-05-10T23:01:05.447Z,10.83
2019-05-10T23:03:33.859Z,6.73
2019-05-10T23:06:02.219Z,5.90
2019-05-10T23:08:30.619Z,5.83
2019-05-10T23:10:59.207Z,6.70
2019-05-10T23:13:28.100Z,6.00
2019-05-10T23:15:56.380Z,11.20
2019-05-10T23:18:25.080Z,8.90
2019-05-10T23:20:53.354Z,10.80
2019-05-10T23:23:21.629Z,11.07
2019-05-10T23:25:49.505Z,9.70
2019-05-10T23:28:18.048Z,9.47
2019-05-10T23:30:46.395Z,10.00
2019-05-10T23:33:14.660Z,13.37
2019-05-10T23:35:42.564Z,11.57
2019-05-10T23:38:10.518Z,7.97
2019-05-10T23:40:39.110Z,9.73
2019-05-10T23:43:07.678Z,5.40
2019-05-10T23:45:36.416Z,7.63
2019-05-10T23:48:05.170Z,6.20
2019-05-10T23:50:33.380Z,7.43
2019-05-10T23:53:00.939Z,7.83
2019-05-10T23:55:29.364Z,7.43
2019-05-10T23:57:57.288Z,8.10
